Time;durP1;ratioP1;P1;durP2;ratioP2;P2;SDS_P1;SDS_P2;PMS_P1;PMS_P2;Temp;Humidity;BMP_temperature;BMP_pressure;BME280_temperature;BME280_humidity;BME280_pressure;Samples;Min_cycle;Max_cycle;Signal;HPM_P1;HPM_P2
2022/11/10 00:00:08;;;;;;;3.43;3.13;;;21.80;68.20;;;;;;5027841;28;20501;-79
2022/11/10 00:02:55;;;;;;;5.53;3.20;;;21.70;68.10;;;;;;5028916;28;20811;-79
2022/11/10 00:05:41;;;;;;;3.13;2.83;;;21.80;68.10;;;;;;5028650;28;20456;-79
2022/11/10 00:08:28;;;;;;;3.80;3.50;;;21.80;68.10;;;;;;5026880;28;20470;-79
2022/11/10 00:11:16;;;;;;;3.13;2.83;;;21.70;68.10;;;;;;5023586;28;20443;-79
2022/11/10 00:17:08;;;;;;;2.77;2.57;;;21.80;68.10;;;;;;4997650;28;20610;-79
2022/11/10 00:19:55;;;;;;;2.97;2.73;;;21.70;68.10;;;;;;5016533;28;20517;-79
2022/11/10 00:22:42;;;;;;;2.80;2.60;;;21.70;68.10;;;;;;5014652;28;20454;-79
2022/11/10 00:25:28;;;;;;;2.83;2.57;;;21.70;68.10;;;;;;5026716;28;20448;-79
2022/11/10 00:28:16;;;;;;;3.50;3.17;;;21.70;68.00;;;;;;5021665;28;20534;-79
2022/11/10 00:31:06;;;;;;;2.90;2.70;;;21.70;68.00;;;;;;5024969;28;20441;-79
2022/11/10 00:33:52;;;;;;;2.57;2.37;;;21.70;68.00;;;;;;5016046;28;20447;-78
2022/11/10 00:36:40;;;;;;;2.70;2.50;;;21.70;68.00;;;;;;5022824;28;20447;-79
2022/11/10 00:39:26;;;;;;;2.40;2.30;;;21.70;68.00;;;;;;5026751;28;20989;-79
2022/11/10 00:42:13;;;;;;;3.23;2.93;;;21.70;68.00;;;;;;5019767;28;20461;-79
2022/11/10 00:45:01;;;;;;;4.67;3.10;;;21.70;68.00;;;;;;5021869;28;20448;-79
2022/11/10 00:47:47;;;;;;;2.77;2.57;;;21.70;68.00;;;;;;5024170;28;21067;-79
2022/11/10 00:50:34;;;;;;;2.87;2.50;;;21.70;68.00;;;;;;5030138;28;20550;-79
2022/11/10 00:53:20;;;;;;;3.00;2.43;;;21.70;68.00;;;;;;5028982;28;20545;-79
2022/11/10 00:56:08;;;;;;;3.17;2.87;;;21.70;68.00;;;;;;5026381;28;20454;-79
2022/11/10 00:58:54;;;;;;;2.57;2.37;;;21.70;67.90;;;;;;5026633;28;20501;-79
2022/11/10 01:01:42;;;;;;;2.40;2.30;;;21.70;67.90;;;;;;5027386;28;20450;-79
2022/11/10 01:04:29;;;;;;;2.60;2.40;;;21.70;67.90;;;;;;5029919;28;20576;-79
2022/11/10 01:07:16;;;;;;;2.00;1.90;;;21.70;67.90;;;;;;5023679;28;20451;-78
2022/11/10 01:10:03;;;;;;;2.47;2.27;;;21.70;67.90;;;;;;5023709;28;20468;-79
2022/11/10 01:12:49;;;;;;;3.30;3.00;;;21.70;67.90;;;;;;5024060;28;20451;-79
2022/11/10 01:15:39;;;;;;;2.27;2.10;;;21.70;67.90;;;;;;5023532;28;20449;-79
2022/11/10 01:18:27;;;;;;;2.10;1.87;;;21.70;67.90;;;;;;5027036;28;20509;-79
2022/11/10 01:21:14;;;;;;;2.50;2.30;;;21.70;67.90;;;;;;5026574;28;20450;-79
2022/11/10 01:24:01;;;;;;;2.50;2.30;;;21.70;67.80;;;;;;5022949;28;20466;-79
2022/11/10 01:26:48;;;;;;;2.17;1.97;;;21.70;67.80;;;;;;5020962;28;20981;-79
2022/11/10 01:29:34;;;;;;;1.90;1.80;;;21.70;67.80;;;;;;5017938;28;20478;-79
2022/11/10 01:32:21;;;;;;;3.07;2.30;;;21.70;67.80;;;;;;5024062;28;20446;-79
2022/11/10 01:35:09;;;;;;;2.50;2.07;;;21.70;67.80;;;;;;5023723;28;21042;-79
2022/11/10 01:37:57;;;;;;;2.20;2.03;;;21.70;67.80;;;;;;5020126;28;20450;-79
2022/11/10 01:40:43;;;;;;;2.70;2.10;;;21.70;67.80;;;;;;5026865;28;21005;-79
2022/11/10 01:43:31;;;;;;;2.93;2.47;;;21.70;67.80;;;;;;5020167;28;20618;-79
2022/11/10 01:46:18;;;;;;;2.43;2.23;;;21.70;67.80;;;;;;5027335;28;20511;-79
2022/11/10 01:49:05;;;;;;;2.40;2.20;;;21.70;67.80;;;;;;5019346;28;20478;-79
2022/11/10 01:51:57;;;;;;;2.23;2.03;;;21.70;67.90;;;;;;5025705;28;20475;-79
2022/11/10 01:54:48;;;;;;;2.80;2.17;;;21.70;67.80;;;;;;5019505;28;20439;-79
2022/11/10 01:57:35;;;;;;;2.57;1.90;;;21.70;67.90;;;;;;5020024;28;20442;-78
2022/11/10 02:00:22;;;;;;;2.63;2.33;;;21.70;67.90;;;;;;5027680;28;20446;-78
2022/11/10 02:03:13;;;;;;;2.57;2.37;;;21.70;67.90;;;;;;5021219;28;20451;-79
2022/11/10 02:06:00;;;;;;;2.30;2.10;;;21.70;67.90;;;;;;5020885;28;20962;-79
2022/11/10 02:08:49;;;;;;;1.83;1.73;;;21.70;67.90;;;;;;5032737;28;20457;-79
2022/11/10 02:11:37;;;;;;;1.80;1.70;;;21.60;67.90;;;;;;5024138;28;20463;-79
2022/11/10 02:14:24;;;;;;;2.73;2.03;;;21.60;67.80;;;;;;5017642;28;20452;-79
2022/11/10 02:17:11;;;;;;;2.30;2.10;;;21.70;67.80;;;;;;5016255;28;20920;-79
2022/11/10 02:19:59;;;;;;;1.90;1.80;;;21.60;67.80;;;;;;5022577;28;21283;-79
2022/11/10 02:22:47;;;;;;;2.80;2.50;;;21.60;67.80;;;;;;5021340;28;20441;-79
2022/11/10 02:25:35;;;;;;;2.37;2.20;;;21.60;67.80;;;;;;5029498;28;20445;-79
2022/11/10 02:28:21;;;;;;;1.93;1.83;;;21.60;67.80;;;;;;5023423;28;20565;-79
2022/11/10 02:31:08;;;;;;;1.50;1.40;;;21.60;67.80;;;;;;5027683;28;20470;-79
2022/11/10 02:33:55;;;;;;;1.60;1.50;;;21.60;67.80;;;;;;5023349;28;20470;-79
2022/11/10 02:36:41;;;;;;;2.00;1.90;;;21.60;67.80;;;;;;5027142;28;20811;-79
2022/11/10 02:39:29;;;;;;;1.93;1.83;;;21.60;67.80;;;;;;5020263;28;20505;-79
2022/11/10 02:42:16;;;;;;;1.73;1.63;;;21.60;67.80;;;;;;5024564;28;20969;-79
2022/11/10 02:45:02;;;;;;;1.60;1.50;;;21.60;67.80;;;;;;5019578;28;20463;-79
2022/11/10 02:47:49;;;;;;;1.73;1.63;;;21.60;67.80;;;;;;5024633;28;20491;-79
2022/11/10 02:50:35;;;;;;;1.80;1.47;;;21.60;67.80;;;;;;5026223;28;20454;-79
2022/11/10 02:53:22;;;;;;;1.80;1.70;;;21.60;67.80;;;;;;5024828;28;20956;-79
2022/11/10 02:56:10;;;;;;;2.33;1.77;;;21.60;67.80;;;;;;5018256;28;20952;-79
2022/11/10 02:58:57;;;;;;;2.30;2.10;;;21.60;67.80;;;;;;5020879;28;20454;-79
2022/11/10 03:01:44;;;;;;;1.93;1.83;;;21.60;67.80;;;;;;5022330;28;20506;-79
2022/11/10 03:04:30;;;;;;;1.90;1.80;;;21.60;67.80;;;;;;5020524;28;20911;-79
2022/11/10 03:07:17;;;;;;;2.20;2.10;;;21.60;67.80;;;;;;5023031;28;20441;-79
2022/11/10 03:10:05;;;;;;;1.73;1.63;;;21.60;67.80;;;;;;5022990;28;20881;-79
2022/11/10 03:12:56;;;;;;;1.20;1.20;;;21.60;67.80;;;;;;5022300;28;20433;-79
2022/11/10 03:15:42;;;;;;;1.63;1.53;;;21.60;67.80;;;;;;5026848;28;20466;-79
2022/11/10 03:18:28;;;;;;;1.60;1.50;;;21.60;67.80;;;;;;5025309;28;20476;-79
2022/11/10 03:21:15;;;;;;;1.43;1.33;;;21.60;67.70;;;;;;5025569;28;20463;-79
2022/11/10 03:24:02;;;;;;;2.13;2.03;;;21.60;67.70;;;;;;5022116;28;20509;-79
2022/11/10 03:26:48;;;;;;;1.60;1.23;;;21.60;67.70;;;;;;5018548;28;20446;-79
2022/11/10 03:29:36;;;;;;;1.63;1.53;;;21.60;67.70;;;;;;5030976;28;20622;-79
2022/11/10 03:32:23;;;;;;;1.93;1.83;;;21.60;67.70;;;;;;5030595;28;20458;-79
2022/11/10 03:35:09;;;;;;;1.93;1.83;;;21.60;67.70;;;;;;5028831;28;20441;-79
2022/11/10 03:37:56;;;;;;;1.50;1.40;;;21.60;67.70;;;;;;5026090;28;20562;-79
2022/11/10 03:40:43;;;;;;;1.47;1.37;;;21.60;67.70;;;;;;5023462;28;20537;-79
2022/11/10 03:43:49;;;;;;;1.90;1.60;;;21.60;67.70;;;;;;5027853;28;20462;-79
2022/11/10 03:46:38;;;;;;;1.83;1.73;;;21.60;67.70;;;;;;5027804;28;20501;-79
2022/11/10 03:49:29;;;;;;;1.83;1.73;;;21.60;67.70;;;;;;5027795;28;20474;-79
2022/11/10 03:52:16;;;;;;;1.77;1.67;;;21.60;67.70;;;;;;5030390;28;20588;-79
2022/11/10 03:55:02;;;;;;;1.40;1.30;;;21.60;67.70;;;;;;5021875;28;20467;-79
2022/11/10 03:57:49;;;;;;;1.70;1.60;;;21.60;67.70;;;;;;5029941;28;20458;-79
2022/11/10 04:00:35;;;;;;;1.63;1.50;;;21.60;67.70;;;;;;5024085;28;20533;-79
2022/11/10 04:03:24;;;;;;;1.10;1.10;;;21.60;67.60;;;;;;5023165;28;20457;-79
2022/11/10 04:09:15;;;;;;;1.43;1.33;;;21.60;67.70;;;;;;5019451;28;20575;-79
2022/11/10 04:18:31;;;;;;;1.60;1.50;;;21.60;67.70;;;;;;4946262;29;20598;-79
2022/11/10 04:21:18;;;;;;;2.53;1.63;;;21.60;67.70;;;;;;4940484;29;20509;-78
2022/11/10 04:24:06;;;;;;;1.70;1.60;;;21.60;67.70;;;;;;5011206;28;20470;-79
2022/11/10 04:26:52;;;;;;;1.50;1.40;;;21.50;67.70;;;;;;5029382;28;20492;-79
2022/11/10 04:29:38;;;;;;;1.13;1.03;;;21.50;67.70;;;;;;5027965;28;20832;-79
2022/11/10 04:32:25;;;;;;;1.10;0.90;;;21.60;67.60;;;;;;5021703;28;20537;-79
2022/11/10 04:35:13;;;;;;;1.30;1.20;;;21.50;67.60;;;;;;5026467;28;20966;-79
2022/11/10 04:38:00;;;;;;;1.17;1.07;;;21.50;67.70;;;;;;5024492;28;21004;-79
2022/11/10 04:40:47;;;;;;;1.50;1.40;;;21.50;67.60;;;;;;5027028;28;20650;-79
2022/11/10 04:43:34;;;;;;;1.50;1.40;;;21.50;67.70;;;;;;5025104;28;20450;-79
2022/11/10 04:46:25;;;;;;;1.27;1.17;;;21.50;67.70;;;;;;5025270;28;20480;-79
2022/11/10 04:49:11;;;;;;;1.43;1.33;;;21.50;67.70;;;;;;5028943;28;20473;-79
2022/11/10 04:51:59;;;;;;;1.50;1.40;;;21.50;67.70;;;;;;5025325;28;20454;-79
2022/11/10 04:54:46;;;;;;;1.20;1.13;;;21.50;67.70;;;;;;5016096;28;20626;-79
2022/11/10 04:57:33;;;;;;;1.13;1.10;;;21.50;67.70;;;;;;5027196;28;20442;-78
2022/11/10 05:00:20;;;;;;;1.37;1.27;;;21.50;67.70;;;;;;5027464;28;20453;-79
2022/11/10 05:03:09;;;;;;;1.40;1.27;;;21.50;67.70;;;;;;5031083;28;20448;-79
2022/11/10 05:05:56;;;;;;;1.53;1.40;;;21.50;67.70;;;;;;5025111;28;20451;-78
2022/11/10 05:08:44;;;;;;;1.00;1.00;;;21.50;67.70;;;;;;5021683;28;20449;-79
2022/11/10 05:11:31;;;;;;;1.00;1.00;;;21.50;67.70;;;;;;5027381;28;21090;-79
2022/11/10 05:14:17;;;;;;;1.43;1.33;;;21.50;67.70;;;;;;5030068;28;20848;-79
2022/11/10 05:17:04;;;;;;;1.57;1.37;;;21.50;67.70;;;;;;5028924;28;20453;-79
2022/11/10 05:19:51;;;;;;;1.23;1.13;;;21.50;67.70;;;;;;5030099;28;20474;-79
2022/11/10 05:22:38;;;;;;;1.13;1.10;;;21.40;67.70;;;;;;5031272;28;20519;-79
2022/11/10 05:25:26;;;;;;;1.20;1.10;;;21.40;67.70;;;;;;5031228;28;20432;-78
2022/11/10 05:28:12;;;;;;;1.03;1.03;;;21.40;67.70;;;;;;5029438;28;20450;-79
2022/11/10 05:30:59;;;;;;;1.17;1.17;;;21.40;67.70;;;;;;5029453;28;20515;-79
2022/11/10 05:33:46;;;;;;;1.33;1.23;;;21.40;67.70;;;;;;5028691;28;20504;-79
2022/11/10 05:36:33;;;;;;;1.50;1.40;;;21.40;67.70;;;;;;5027432;28;20452;-79
2022/11/10 05:39:19;;;;;;;1.20;1.20;;;21.40;67.70;;;;;;5025687;28;21093;-79
2022/11/10 05:42:07;;;;;;;0.90;0.90;;;21.40;67.70;;;;;;5029252;28;20462;-79
2022/11/10 05:44:53;;;;;;;1.73;1.57;;;21.40;67.70;;;;;;5029325;28;20458;-79
2022/11/10 05:47:40;;;;;;;1.03;1.00;;;21.40;67.80;;;;;;5029278;28;22295;-79
2022/11/10 05:50:27;;;;;;;1.10;1.00;;;21.40;67.80;;;;;;5028733;28;20482;-79
2022/11/10 05:53:14;;;;;;;1.03;1.03;;;21.40;67.80;;;;;;5031633;28;20563;-79
2022/11/10 05:56:00;;;;;;;1.00;1.00;;;21.40;67.80;;;;;;5027666;28;20798;-78
2022/11/10 05:58:48;;;;;;;1.50;1.40;;;21.40;67.90;;;;;;5027888;28;20462;-78
2022/11/10 06:01:35;;;;;;;1.40;1.20;;;21.40;67.90;;;;;;5024247;28;20477;-78
2022/11/10 06:04:22;;;;;;;1.27;1.27;;;21.40;67.90;;;;;;5028993;28;20802;-78
2022/11/10 06:07:08;;;;;;;1.37;1.03;;;21.40;67.90;;;;;;5028634;28;20442;-79
2022/11/10 06:09:55;;;;;;;1.60;1.30;;;21.40;67.90;;;;;;5031262;28;20464;-79
2022/11/10 06:12:42;;;;;;;1.07;1.07;;;21.40;67.90;;;;;;5028608;28;20454;-78
2022/11/10 06:15:30;;;;;;;0.90;0.90;;;21.40;68.00;;;;;;5029096;28;20568;-79
2022/11/10 06:18:16;;;;;;;1.10;1.10;;;21.40;68.00;;;;;;5028202;28;20526;-78
2022/11/10 06:21:03;;;;;;;0.87;0.87;;;21.40;68.00;;;;;;5021950;28;21000;-80
2022/11/10 06:23:49;;;;;;;1.40;1.17;;;21.30;68.00;;;;;;5022986;28;20461;-81
2022/11/10 06:26:36;;;;;;;1.00;1.00;;;21.30;68.00;;;;;;5024944;28;20539;-80
2022/11/10 06:29:22;;;;;;;1.60;1.50;;;21.30;68.00;;;;;;5028614;28;20457;-80
2022/11/10 06:32:14;;;;;;;1.10;1.10;;;21.30;68.10;;;;;;5023117;28;20457;-80
2022/11/10 06:35:01;;;;;;;0.87;0.87;;;21.30;68.10;;;;;;5027002;28;20474;-80
2022/11/10 06:37:57;;;;;;;1.50;1.07;;;21.30;68.10;;;;;;5027920;28;20581;-80
2022/11/10 06:40:43;;;;;;;1.53;1.10;;;21.30;68.10;;;;;;5026804;28;20439;-80
2022/11/10 06:43:30;;;;;;;1.40;1.30;;;21.30;68.10;;;;;;5025278;28;21078;-80
2022/11/10 06:46:16;;;;;;;0.90;0.90;;;21.30;68.10;;;;;;5027363;28;20478;-81
2022/11/10 06:49:04;;;;;;;1.40;1.30;;;21.30;68.10;;;;;;5027315;28;20803;-80
2022/11/10 06:51:52;;;;;;;1.33;1.10;;;21.30;68.10;;;;;;5023065;28;20552;-81
2022/11/10 06:54:38;;;;;;;2.20;1.37;;;21.30;68.10;;;;;;5025902;28;20458;-81
2022/11/10 06:57:25;;;;;;;1.20;1.10;;;21.30;68.10;;;;;;5026257;28;20593;-81
2022/11/10 07:00:13;;;;;;;2.60;1.30;;;21.30;68.10;;;;;;5028121;28;20788;-81
2022/11/10 07:03:03;;;;;;;1.33;1.27;;;21.30;68.10;;;;;;5025416;28;20474;-81
2022/11/10 07:05:51;;;;;;;1.40;1.30;;;21.30;68.10;;;;;;5021747;28;21322;-79
2022/11/10 07:08:38;;;;;;;4.43;1.77;;;21.30;68.10;;;;;;5026249;28;20949;-80
2022/11/10 07:11:24;;;;;;;2.17;1.70;;;21.30;70.00;;;;;;5028371;28;20477;-79
2022/11/10 07:14:11;;;;;;;3.13;1.60;;;21.40;70.20;;;;;;5027015;28;20508;-79
2022/11/10 07:16:58;;;;;;;10.10;2.67;;;21.40;70.80;;;;;;5027013;28;20453;-81
2022/11/10 07:19:44;;;;;;;4.03;2.47;;;21.50;71.10;;;;;;5026892;28;20523;-80
2022/11/10 07:22:32;;;;;;;4.40;3.30;;;21.50;71.20;;;;;;5030644;28;20461;-80
2022/11/10 07:25:19;;;;;;;7.47;2.70;;;21.50;71.40;;;;;;5026968;28;20453;-80
2022/11/10 07:28:09;;;;;;;4.93;2.87;;;21.60;71.30;;;;;;5027758;28;20489;-79
2022/11/10 07:30:55;;;;;;;7.00;3.20;;;21.60;71.20;;;;;;5023223;28;20533;-80
2022/11/10 07:33:42;;;;;;;6.17;2.50;;;21.60;71.20;;;;;;5020287;28;20435;-80
2022/11/10 07:36:29;;;;;;;5.37;2.40;;;21.70;71.10;;;;;;5028576;28;20455;-80
2022/11/10 07:39:17;;;;;;;3.20;2.27;;;21.70;70.90;;;;;;5024215;28;20438;-81
2022/11/10 07:42:04;;;;;;;5.27;2.47;;;21.70;70.80;;;;;;5024840;28;20923;-81
2022/11/10 07:44:51;;;;;;;4.80;2.87;;;21.70;70.80;;;;;;5019732;28;20463;-81
2022/11/10 07:47:37;;;;;;;4.73;2.97;;;21.80;70.70;;;;;;5025508;28;20491;-80
2022/11/10 07:50:23;;;;;;;5.10;2.53;;;21.80;70.70;;;;;;5028230;28;20469;-81
2022/11/10 07:53:12;;;;;;;4.93;2.60;;;21.80;70.60;;;;;;5030453;28;20578;-80
2022/11/10 07:56:00;;;;;;;4.00;2.73;;;21.80;70.60;;;;;;5022073;28;20542;-80
2022/11/10 07:58:47;;;;;;;3.20;1.97;;;21.90;70.50;;;;;;5029428;28;20509;-80
2022/11/10 08:01:34;;;;;;;3.17;2.87;;;21.90;70.40;;;;;;5029832;28;20439;-80
2022/11/10 08:04:21;;;;;;;3.73;2.40;;;21.90;70.30;;;;;;5025301;28;20459;-80
2022/11/10 08:07:07;;;;;;;2.40;2.20;;;22.00;70.20;;;;;;5023063;28;20434;-80
2022/11/10 08:09:54;;;;;;;6.70;2.87;;;22.00;70.20;;;;;;5028028;28;20864;-81
2022/11/10 08:12:42;;;;;;;4.30;2.10;;;22.00;70.10;;;;;;5025773;28;20494;-80
2022/11/10 08:15:31;;;;;;;2.50;2.20;;;22.00;70.10;;;;;;5029350;28;20511;-79
2022/11/10 08:18:19;;;;;;;5.43;2.90;;;22.00;69.90;;;;;;5023608;28;20455;-79
2022/11/10 08:21:06;;;;;;;2.13;1.83;;;22.10;69.90;;;;;;5026983;28;20993;-81
2022/11/10 08:23:53;;;;;;;2.63;2.33;;;22.10;69.80;;;;;;5023907;28;20443;-80
2022/11/10 08:26:39;;;;;;;6.80;2.80;;;22.10;69.70;;;;;;5027528;28;20526;-81
2022/11/10 08:29:27;;;;;;;3.40;2.97;;;22.10;69.70;;;;;;5021260;28;20964;-79
2022/11/10 08:32:14;;;;;;;2.40;1.87;;;22.10;69.70;;;;;;5021324;28;20490;-79
2022/11/10 08:35:01;;;;;;;4.03;2.23;;;22.20;69.60;;;;;;5023051;28;20990;-82
2022/11/10 08:37:47;;;;;;;3.17;2.53;;;22.20;69.60;;;;;;5021474;28;20439;-80
2022/11/10 08:40:33;;;;;;;4.53;2.10;;;22.20;69.50;;;;;;5021064;28;20439;-81
2022/11/10 08:43:20;;;;;;;3.53;2.60;;;22.20;69.50;;;;;;5031057;28;20817;-79
2022/11/10 08:46:09;;;;;;;3.80;2.30;;;22.20;69.30;;;;;;5024130;28;20468;-80
2022/11/10 08:48:56;;;;;;;4.07;2.17;;;22.20;69.20;;;;;;5025032;28;20788;-79
2022/11/10 08:51:42;;;;;;;4.70;2.53;;;22.20;68.90;;;;;;5026978;28;20487;-80
2022/11/10 08:54:29;;;;;;;5.60;2.43;;;22.20;68.70;;;;;;5016714;28;20443;-79
2022/11/10 08:57:15;;;;;;;4.40;2.20;;;22.20;68.60;;;;;;5018389;28;20455;-80
2022/11/10 09:00:02;;;;;;;2.63;1.97;;;22.20;68.50;;;;;;5025832;28;20458;-82
2022/11/10 09:02:50;;;;;;;3.47;2.73;;;22.20;68.80;;;;;;5028175;28;20544;-81
2022/11/10 09:05:36;;;;;;;4.30;2.50;;;22.20;69.00;;;;;;5030436;28;20447;-79
2022/11/10 09:08:23;;;;;;;3.00;2.37;;;22.20;69.00;;;;;;5028964;28;20714;-79
2022/11/10 09:11:10;;;;;;;5.10;2.47;;;22.20;69.00;;;;;;5029832;28;20501;-79
2022/11/10 09:13:56;;;;;;;4.40;2.70;;;22.20;69.00;;;;;;5032986;28;20435;-79
2022/11/10 09:16:43;;;;;;;5.50;2.50;;;22.20;68.80;;;;;;5028041;28;20466;-79
2022/11/10 09:19:31;;;;;;;3.87;2.20;;;22.30;68.80;;;;;;5033171;28;20574;-80
2022/11/10 09:22:18;;;;;;;4.10;2.00;;;22.30;68.90;;;;;;5032018;28;20501;-81
2022/11/10 09:25:05;;;;;;;6.60;2.80;;;22.30;68.90;;;;;;5029825;28;20442;-80
2022/11/10 09:27:52;;;;;;;2.83;1.93;;;22.30;68.90;;;;;;5028441;28;20451;-81
2022/11/10 09:30:38;;;;;;;6.00;1.90;;;22.30;68.90;;;;;;5030786;28;20443;-80
2022/11/10 09:33:25;;;;;;;3.07;2.87;;;22.30;68.90;;;;;;5028673;28;20447;-79
2022/11/10 09:36:13;;;;;;;5.17;2.93;;;22.30;68.80;;;;;;5023158;28;20452;-79
2022/11/10 09:39:00;;;;;;;3.43;2.57;;;22.40;68.70;;;;;;5029529;28;20545;-79
2022/11/10 09:41:47;;;;;;;3.43;2.13;;;22.40;68.70;;;;;;5028043;28;20808;-81
2022/11/10 09:44:38;;;;;;;4.90;2.70;;;22.40;68.60;;;;;;5019177;28;20436;-81
2022/11/10 09:47:31;;;;;;;2.77;2.23;;;22.50;68.60;;;;;;5024895;28;20489;-80
2022/11/10 09:50:41;;;;;;;4.40;2.30;;;22.50;68.50;;;;;;5027406;28;20462;-81
2022/11/10 09:53:35;;;;;;;2.43;2.23;;;22.50;68.50;;;;;;5021477;28;20474;-81
2022/11/10 09:56:30;;;;;;;3.90;2.03;;;22.50;68.40;;;;;;5028112;28;20437;-81
2022/11/10 09:59:24;;;;;;;3.47;2.00;;;22.60;68.40;;;;;;5021210;28;20461;-81
2022/11/10 10:02:25;;;;;;;3.83;2.50;;;22.60;68.30;;;;;;5024971;28;20468;-80
2022/11/10 10:05:46;;;;;;;6.20;3.00;;;22.60;68.30;;;;;;5021261;28;20527;-80
2022/11/10 10:08:53;;;;;;;3.53;2.87;;;22.70;68.20;;;;;;5030276;28;20501;-79
2022/11/10 10:11:54;;;;;;;2.77;2.50;;;22.80;68.00;;;;;;5022955;28;20978;-80
2022/11/10 10:14:56;;;;;;;3.87;2.40;;;22.80;67.90;;;;;;5030102;28;20529;-81
2022/11/10 10:17:52;;;;;;;4.80;2.00;;;22.90;67.70;;;;;;5015813;28;20817;-81
2022/11/10 10:20:47;;;;;;;3.87;2.63;;;22.90;67.60;;;;;;5024718;28;20449;-79
2022/11/10 10:23:36;;;;;;;3.10;2.50;;;23.00;67.40;;;;;;5028644;28;20457;-80
2022/11/10 10:26:48;;;;;;;2.90;2.50;;;23.10;67.10;;;;;;5026094;28;20799;-79
2022/11/10 10:29:40;;;;;;;3.77;2.53;;;23.20;66.90;;;;;;5022499;28;20941;-80
2022/11/10 10:32:26;;;;;;;3.17;2.33;;;23.40;66.60;;;;;;5019180;28;21482;-81
2022/11/10 10:35:14;;;;;;;4.40;2.90;;;23.50;66.30;;;;;;5027740;28;20438;-81
2022/11/10 10:38:04;;;;;;;2.73;2.30;;;23.60;66.00;;;;;;5025671;28;20498;-82
2022/11/10 10:40:58;;;;;;;2.60;2.30;;;23.80;65.70;;;;;;5028134;28;20918;-81
2022/11/10 10:43:48;;;;;;;3.30;2.80;;;23.90;65.40;;;;;;5025519;28;20494;-81
2022/11/10 10:46:45;;;;;;;4.90;3.63;;;24.00;64.90;;;;;;5024876;28;20482;-80
2022/11/10 10:49:33;;;;;;;7.60;3.03;;;24.10;64.70;;;;;;5021213;28;20454;-80
2022/11/10 10:52:23;;;;;;;2.80;2.60;;;24.20;64.30;;;;;;5022482;28;21037;-80
2022/11/10 10:55:13;;;;;;;3.73;2.60;;;24.30;64.30;;;;;;5027262;28;20827;-81
2022/11/10 10:58:03;;;;;;;4.87;2.30;;;24.30;64.30;;;;;;5027076;28;20529;-81
2022/11/10 11:00:52;;;;;;;2.60;2.40;;;24.40;64.10;;;;;;5023145;28;20526;-81
2022/11/10 11:03:42;;;;;;;3.60;2.90;;;24.40;63.90;;;;;;5018492;28;20587;-78
2022/11/10 11:06:30;;;;;;;3.37;3.00;;;24.40;63.60;;;;;;5023182;28;20444;-78
2022/11/10 11:09:19;;;;;;;4.73;2.60;;;24.40;63.80;;;;;;5018317;28;20449;-78
2022/11/10 11:12:08;;;;;;;3.60;2.73;;;24.50;63.50;;;;;;5022433;28;20472;-79
2022/11/10 11:15:13;;;;;;;4.00;3.37;;;24.60;63.50;;;;;;5022712;28;20447;-81
2022/11/10 11:18:02;;;;;;;4.10;3.00;;;24.70;63.30;;;;;;5023905;28;20816;-82
2022/11/10 11:20:56;;;;;;;5.40;3.27;;;24.70;63.20;;;;;;5030082;28;20973;-79
2022/11/10 11:24:15;;;;;;;4.50;3.23;;;24.70;63.10;;;;;;5026378;28;20461;-82
2022/11/10 11:27:05;;;;;;;3.03;2.60;;;24.70;63.20;;;;;;5019753;28;21213;-81
2022/11/10 11:30:10;;;;;;;3.30;2.80;;;24.70;62.90;;;;;;5024300;28;20465;-82
2022/11/10 11:33:17;;;;;;;4.13;2.77;;;24.70;62.80;;;;;;5021004;28;21085;-81
2022/11/10 11:36:14;;;;;;;5.93;2.90;;;24.70;62.50;;;;;;5028076;28;21138;-82
2022/11/10 11:39:11;;;;;;;3.07;2.77;;;24.80;62.30;;;;;;5016364;28;20450;-81
2022/11/10 11:42:13;;;;;;;4.17;3.17;;;24.80;62.40;;;;;;5021320;28;20442;-82
2022/11/10 11:45:15;;;;;;;3.73;2.40;;;24.90;62.40;;;;;;5022598;28;20453;-82
2022/11/10 11:48:19;;;;;;;2.53;2.03;;;24.90;62.40;;;;;;5018245;28;20500;-81
2022/11/10 11:51:15;;;;;;;3.27;2.70;;;24.90;62.40;;;;;;5024021;28;20461;-83
2022/11/10 11:54:27;;;;;;;3.00;2.57;;;24.90;62.30;;;;;;5022204;28;20478;-81
2022/11/10 11:57:26;;;;;;;3.37;3.07;;;25.00;62.10;;;;;;5017025;28;20457;-80
2022/11/10 12:00:17;;;;;;;2.77;2.47;;;25.10;62.00;;;;;;5019595;28;20568;-78
2022/11/10 12:03:32;;;;;;;3.30;3.00;;;25.10;61.80;;;;;;5023090;28;21057;-79
2022/11/10 12:06:34;;;;;;;4.03;2.57;;;25.20;61.60;;;;;;5023079;28;20791;-79
2022/11/10 12:09:27;;;;;;;6.00;2.43;;;25.20;61.50;;;;;;5024233;28;20478;-79
2022/11/10 12:12:55;;;;;;;4.87;2.60;;;25.20;61.40;;;;;;5026091;28;20459;-80
2022/11/10 12:15:53;;;;;;;3.57;2.60;;;25.30;61.30;;;;;;5025977;28;20512;-80
2022/11/10 12:18:47;;;;;;;5.37;2.53;;;25.30;61.30;;;;;;5025613;28;20450;-79
2022/11/10 12:21:43;;;;;;;3.93;2.17;;;25.30;61.20;;;;;;5022484;28;20447;-80
2022/11/10 12:24:42;;;;;;;3.20;2.47;;;25.30;61.20;;;;;;5027446;28;20599;-80
2022/11/10 12:27:33;;;;;;;2.67;2.43;;;25.30;61.10;;;;;;5030068;28;20470;-79
2022/11/10 12:30:19;;;;;;;3.80;2.23;;;25.30;61.00;;;;;;5023033;28;20447;-80
2022/11/10 12:33:18;;;;;;;2.97;2.10;;;25.30;61.00;;;;;;5031083;28;21005;-80
2022/11/10 12:36:10;;;;;;;3.80;2.50;;;25.20;61.00;;;;;;5030505;28;20455;-80
2022/11/10 12:39:03;;;;;;;2.50;2.30;;;25.20;61.10;;;;;;5030987;28;20445;-81
2022/11/10 12:41:54;;;;;;;2.30;2.03;;;25.10;61.30;;;;;;5029811;28;20446;-80
2022/11/10 12:44:54;;;;;;;3.10;2.23;;;25.10;61.30;;;;;;5029090;28;20462;-79
2022/11/10 12:47:43;;;;;;;3.07;2.13;;;25.10;61.30;;;;;;5026994;28;20951;-79
2022/11/10 12:50:45;;;;;;;2.90;2.13;;;25.10;61.30;;;;;;5027154;28;20602;-79
2022/11/10 12:53:35;;;;;;;3.27;2.50;;;25.10;61.20;;;;;;5029135;28;20716;-80
2022/11/10 12:56:27;;;;;;;2.90;2.37;;;25.20;61.30;;;;;;5028634;28;20458;-80
2022/11/10 12:59:15;;;;;;;2.30;2.10;;;25.20;61.30;;;;;;5026883;28;20451;-81
2022/11/10 13:02:16;;;;;;;5.70;3.33;;;25.20;61.30;;;;;;5028784;28;20484;-80
2022/11/10 13:05:24;;;;;;;3.87;2.30;;;25.20;61.30;;;;;;5025997;28;21063;-79
2022/11/10 13:08:31;;;;;;;2.40;2.20;;;25.20;61.20;;;;;;5030918;28;20435;-79
2022/11/10 13:11:26;;;;;;;4.17;3.80;;;25.20;61.20;;;;;;5029804;28;20439;-81
2022/11/10 13:14:23;;;;;;;2.50;1.77;;;25.20;61.20;;;;;;5029598;28;20485;-81
2022/11/10 13:17:32;;;;;;;4.77;2.70;;;25.10;61.20;;;;;;5025574;28;20450;-81
2022/11/10 13:20:50;;;;;;;3.33;2.77;;;25.10;61.30;;;;;;5024260;28;20462;-81
2022/11/10 13:24:14;;;;;;;3.37;2.90;;;25.10;61.40;;;;;;5020464;28;20471;-82
2022/11/10 13:27:04;;;;;;;3.33;2.43;;;25.10;61.50;;;;;;5026603;28;20516;-83
2022/11/10 13:29:55;;;;;;;2.90;1.90;;;25.10;61.80;;;;;;5028463;28;20504;-82
2022/11/10 13:32:42;;;;;;;5.00;2.70;;;25.10;61.90;;;;;;5029588;28;20517;-81
2022/11/10 13:35:51;;;;;;;2.63;2.23;;;25.10;62.00;;;;;;5026400;28;20851;-82
2022/11/10 13:38:41;;;;;;;3.57;2.50;;;25.20;62.10;;;;;;5022782;28;20451;-82
2022/11/10 13:41:30;;;;;;;3.60;2.80;;;25.20;62.20;;;;;;5029274;28;20450;-83
2022/11/10 13:44:24;;;;;;;2.87;2.53;;;25.20;62.30;;;;;;5024650;28;20778;-81
2022/11/10 13:47:39;;;;;;;4.00;1.87;;;25.20;62.40;;;;;;5026417;28;20534;-81
2022/11/10 13:50:49;;;;;;;2.50;1.90;;;25.20;62.40;;;;;;5029203;28;20551;-81
2022/11/10 13:53:48;;;;;;;4.40;1.80;;;25.20;62.50;;;;;;5030228;28;20510;-81
2022/11/10 13:57:00;;;;;;;3.33;2.10;;;25.20;62.60;;;;;;5031253;28;20815;-82
2022/11/10 13:59:52;;;;;;;2.43;2.23;;;25.20;62.70;;;;;;5027055;28;20548;-81
2022/11/10 14:03:01;;;;;;;3.40;2.00;;;25.10;62.80;;;;;;5029409;28;20458;-81
2022/11/10 14:06:03;;;;;;;3.23;2.93;;;25.10;62.90;;;;;;5026507;28;20454;-81
2022/11/10 14:08:54;;;;;;;3.30;2.30;;;25.00;63.10;;;;;;5030255;28;20450;-81
2022/11/10 14:11:43;;;;;;;2.50;1.70;;;25.00;63.20;;;;;;5030837;28;20989;-81
2022/11/10 14:14:46;;;;;;;3.00;1.83;;;25.00;63.30;;;;;;5030382;28;21049;-82
2022/11/10 14:17:39;;;;;;;4.67;2.00;;;25.00;63.50;;;;;;5031639;28;20493;-82
2022/11/10 14:20:30;;;;;;;3.00;1.80;;;25.00;63.60;;;;;;5028938;28;20463;-81
2022/11/10 14:23:24;;;;;;;4.57;2.03;;;24.90;63.60;;;;;;5028236;28;20953;-80
2022/11/10 14:26:21;;;;;;;3.60;1.80;;;24.90;63.80;;;;;;5030750;28;20805;-81
2022/11/10 14:29:37;;;;;;;2.33;2.07;;;24.80;63.90;;;;;;5023368;28;20439;-80
2022/11/10 14:32:25;;;;;;;2.10;1.90;;;24.80;64.00;;;;;;4985500;28;21025;-81
2022/11/10 14:35:22;;;;;;;3.23;2.33;;;24.80;64.20;;;;;;5027888;28;20552;-81
2022/11/10 14:38:18;;;;;;;1.97;1.77;;;24.80;64.30;;;;;;5028903;28;20802;-81
2022/11/10 14:41:15;;;;;;;2.53;1.93;;;24.80;64.50;;;;;;5028539;28;20553;-80
2022/11/10 14:44:03;;;;;;;4.30;2.33;;;24.80;64.70;;;;;;5028238;28;20837;-80
2022/11/10 14:46:50;;;;;;;6.27;2.70;;;24.80;64.70;;;;;;5026012;28;20490;-81
2022/11/10 14:49:36;;;;;;;3.70;2.57;;;24.70;64.70;;;;;;5027733;28;20458;-80
2022/11/10 14:52:24;;;;;;;3.90;2.40;;;24.70;64.90;;;;;;5026426;28;20799;-80
2022/11/10 14:55:17;;;;;;;3.20;2.50;;;24.70;65.10;;;;;;5023427;28;20490;-80
2022/11/10 14:58:08;;;;;;;4.87;3.03;;;24.70;65.20;;;;;;5023207;28;20462;-83
2022/11/10 15:00:55;;;;;;;4.60;3.37;;;24.70;65.30;;;;;;5026099;28;20470;-81